<?xml version="1.0" encoding="UTF-8" standalone="no" ?><gpx xmlns="http://www.topografix.com/GPX/1/1" xmlns:gpxx="http://www.garmin.com/xmlschemas/GpxExtensions/v3" xmlns:wptx1="http://www.garmin.com/xmlschemas/WaypointExtension/v1" xmlns:gpxtpx="http://www.garmin.com/xmlschemas/TrackPointExtension/v1" creator="GuideVTT.com" version="1.1" xmlns:xsi="http://www.w3.org/2001/XMLSchema-instance" xsi:schemaLocation="http://www.topografix.com/GPX/1/1 http://www.topografix.com/GPX/1/1/gpx.xsd http://www.garmin.com/xmlschemas/GpxExtensions/v3 http://www8.garmin.com/xmlschemas/GpxExtensionsv3.xsd http://www.garmin.com/xmlschemas/WaypointExtension/v1 http://www8.garmin.com/xmlschemas/WaypointExtensionv1.xsd http://www.garmin.com/xmlschemas/TrackPointExtension/v1 http://www.garmin.com/xmlschemas/TrackPointExtensionv1.xsd">
<metadata><link href="http://www.garmin.com"><text>Garmin International</text></link><time>2013-06-22T15:13:50Z</time></metadata>
<trk><name>etape4brut3.gpx</name><extensions><gpxx:TrackExtension><gpxx:DisplayColor>Cyan</gpxx:DisplayColor></gpxx:TrackExtension></extensions><trkseg>
<trkpt lat="46.08331430" lon="7.50855429"><ele></ele><time>2016-9-12T21:57:47Z</time></trkpt>
<trkpt lat="46.08331421" lon="7.50855446"><ele></ele><time>2016-9-12T21:57:50Z</time></trkpt>
<trkpt lat="46.08323626" lon="7.50859209"><ele></ele><time>2016-9-12T21:57:53Z</time></trkpt>
<trkpt lat="46.08300626" lon="7.50857382"><ele></ele><time>2016-9-12T21:57:56Z</time></trkpt>
<trkpt lat="46.08256093" lon="7.50854080"><ele></ele><time>2016-9-12T21:57:59Z</time></trkpt>
<trkpt lat="46.08206213" lon="7.50846402"><ele></ele><time>2016-9-12T21:58:2Z</time></trkpt>
<trkpt lat="46.08151671" lon="7.50839956"><ele></ele><time>2016-9-12T21:58:5Z</time></trkpt>
<trkpt lat="46.08108530" lon="7.50831767"><ele></ele><time>2016-9-12T21:58:8Z</time></trkpt>
<trkpt lat="46.08036144" lon="7.50827392"><ele></ele><time>2016-9-12T21:58:11Z</time></trkpt>
<trkpt lat="46.08014284" lon="7.50807904"><ele></ele><time>2016-9-12T21:58:14Z</time></trkpt>
<trkpt lat="46.07998090" lon="7.50768618"><ele></ele><time>2016-9-12T21:58:17Z</time></trkpt>
<trkpt lat="46.07993656" lon="7.50692016"><ele></ele><time>2016-9-12T21:58:20Z</time></trkpt>
<trkpt lat="46.07990462" lon="7.50589714"><ele></ele><time>2016-9-12T21:58:23Z</time></trkpt>
<trkpt lat="46.07979474" lon="7.50579589"><ele></ele><time>2016-9-12T21:58:26Z</time></trkpt>
<trkpt lat="46.07915696" lon="7.50512634"><ele></ele><time>2016-9-12T21:58:29Z</time></trkpt>
<trkpt lat="46.07893283" lon="7.50485351"><ele></ele><time>2016-9-12T21:58:32Z</time></trkpt>
<trkpt lat="46.07884884" lon="7.50461019"><ele></ele><time>2016-9-12T21:58:35Z</time></trkpt>
<trkpt lat="46.07890223" lon="7.50446434"><ele></ele><time>2016-9-12T21:58:38Z</time></trkpt>
<trkpt lat="46.07896887" lon="7.50435060"><ele></ele><time>2016-9-12T21:58:41Z</time></trkpt>
<trkpt lat="46.07897448" lon="7.50392111"><ele></ele><time>2016-9-12T21:58:44Z</time></trkpt>
<trkpt lat="46.07879268" lon="7.50373143"><ele></ele><time>2016-9-12T21:58:47Z</time></trkpt>
<trkpt lat="46.07865932" lon="7.50367745"><ele></ele><time>2016-9-12T21:58:50Z</time></trkpt>
<trkpt lat="46.07849755" lon="7.50352708"><ele></ele><time>2016-9-12T21:58:53Z</time></trkpt>
<trkpt lat="46.07852396" lon="7.50323304"><ele></ele><time>2016-9-12T21:58:56Z</time></trkpt>
<trkpt lat="46.07844986" lon="7.50286851"><ele></ele><time>2016-9-12T21:58:59Z</time></trkpt>
<trkpt lat="46.07827753" lon="7.50271655"><ele></ele><time>2016-9-12T21:59:2Z</time></trkpt>
<trkpt lat="46.07814551" lon="7.50261496"><ele></ele><time>2016-9-12T21:59:5Z</time></trkpt>
<trkpt lat="46.07796631" lon="7.50248370"><ele></ele><time>2016-9-12T21:59:8Z</time></trkpt>
<trkpt lat="46.07781711" lon="7.50242972"><ele></ele><time>2016-9-12T21:59:11Z</time></trkpt>
<trkpt lat="46.07768635" lon="7.50232947"><ele></ele><time>2016-9-12T21:59:14Z</time></trkpt>
<trkpt lat="46.07768971" lon="7.50230500"><ele></ele><time>2016-9-12T21:59:17Z</time></trkpt>
<trkpt lat="46.07765744" lon="7.50233609"><ele></ele><time>2016-9-12T21:59:20Z</time></trkpt>
<trkpt lat="46.07766230" lon="7.50226988"><ele></ele><time>2016-9-12T21:59:23Z</time></trkpt>
<trkpt lat="46.07770714" lon="7.50208179"><ele></ele><time>2016-9-12T21:59:26Z</time></trkpt>
<trkpt lat="46.07778777" lon="7.50191415"><ele></ele><time>2016-9-12T21:59:29Z</time></trkpt>
<trkpt lat="46.07826814" lon="7.50189671"><ele></ele><time>2016-9-12T21:59:32Z</time></trkpt>
<trkpt lat="46.07804376" lon="7.50170988"><ele></ele><time>2016-9-12T21:59:35Z</time></trkpt>
<trkpt lat="46.07797385" lon="7.50159957"><ele></ele><time>2016-9-12T21:59:38Z</time></trkpt>
<trkpt lat="46.07782440" lon="7.50147552"><ele></ele><time>2016-9-12T21:59:41Z</time></trkpt>
<trkpt lat="46.07768384" lon="7.50132096"><ele></ele><time>2016-9-12T21:59:44Z</time></trkpt>
<trkpt lat="46.07759030" lon="7.50112130"><ele></ele><time>2016-9-12T21:59:47Z</time></trkpt>
<trkpt lat="46.07744185" lon="7.50092139"><ele></ele><time>2016-9-12T21:59:50Z</time></trkpt>
<trkpt lat="46.07734613" lon="7.50073875"><ele></ele><time>2016-9-12T21:59:53Z</time></trkpt>
<trkpt lat="46.07725812" lon="7.50055963"><ele></ele><time>2016-9-12T21:59:56Z</time></trkpt>
<trkpt lat="46.07715670" lon="7.50035201"><ele></ele><time>2016-9-12T21:59:59Z</time></trkpt>
<trkpt lat="46.07704011" lon="7.50017113"><ele></ele><time>2016-9-12T22:0:2Z</time></trkpt>
<trkpt lat="46.07686845" lon="7.50008153"><ele></ele><time>2016-9-12T22:0:5Z</time></trkpt>
<trkpt lat="46.07664599" lon="7.49989444"><ele></ele><time>2016-9-12T22:0:8Z</time></trkpt>
<trkpt lat="46.07655002" lon="7.49976067"><ele></ele><time>2016-9-12T22:0:11Z</time></trkpt>
<trkpt lat="46.07650199" lon="7.49965556"><ele></ele><time>2016-9-12T22:0:14Z</time></trkpt>
<trkpt lat="46.07646855" lon="7.49956638"><ele></ele><time>2016-9-12T22:0:17Z</time></trkpt>
<trkpt lat="46.07637366" lon="7.49938516"><ele></ele><time>2016-9-12T22:0:20Z</time></trkpt>
<trkpt lat="46.07626428" lon="7.49923261"><ele></ele><time>2016-9-12T22:0:23Z</time></trkpt>
<trkpt lat="46.07612061" lon="7.49907075"><ele></ele><time>2016-9-12T22:0:26Z</time></trkpt>
<trkpt lat="46.07601928" lon="7.49892072"><ele></ele><time>2016-9-12T22:0:29Z</time></trkpt>
<trkpt lat="46.07584812" lon="7.49878610"><ele></ele><time>2016-9-12T22:0:32Z</time></trkpt>
<trkpt lat="46.07565341" lon="7.49877471"><ele></ele><time>2016-9-12T22:0:35Z</time></trkpt>
<trkpt lat="46.07547546" lon="7.49876716"><ele></ele><time>2016-9-12T22:0:38Z</time></trkpt>
<trkpt lat="46.07531461" lon="7.49861822"><ele></ele><time>2016-9-12T22:0:41Z</time></trkpt>
<trkpt lat="46.07518980" lon="7.49841160"><ele></ele><time>2016-9-12T22:0:44Z</time></trkpt>
<trkpt lat="46.07500951" lon="7.49822519"><ele></ele><time>2016-9-12T22:0:47Z</time></trkpt>
<trkpt lat="46.07477565" lon="7.49783350"><ele></ele><time>2016-9-12T22:0:50Z</time></trkpt>
<trkpt lat="46.07475570" lon="7.49780903"><ele></ele><time>2016-9-12T22:0:53Z</time></trkpt>
<trkpt lat="46.07458941" lon="7.49779277"><ele></ele><time>2016-9-12T22:0:56Z</time></trkpt>
<trkpt lat="46.07448933" lon="7.49764449"><ele></ele><time>2016-9-12T22:0:59Z</time></trkpt>
<trkpt lat="46.07440911" lon="7.49738205"><ele></ele><time>2016-9-12T22:1:2Z</time></trkpt>
<trkpt lat="46.07433535" lon="7.49691937"><ele></ele><time>2016-9-12T22:1:5Z</time></trkpt>
<trkpt lat="46.07432504" lon="7.49668459"><ele></ele><time>2016-9-12T22:1:8Z</time></trkpt>
<trkpt lat="46.07433099" lon="7.49659491"><ele></ele><time>2016-9-12T22:1:11Z</time></trkpt>
<trkpt lat="46.07433778" lon="7.49641830"><ele></ele><time>2016-9-12T22:1:14Z</time></trkpt>
<trkpt lat="46.07437097" lon="7.49612309"><ele></ele><time>2016-9-12T22:1:17Z</time></trkpt>
<trkpt lat="46.07441582" lon="7.49578639"><ele></ele><time>2016-9-12T22:1:20Z</time></trkpt>
<trkpt lat="46.07439880" lon="7.49565261"><ele></ele><time>2016-9-12T22:1:23Z</time></trkpt>
<trkpt lat="46.07380050" lon="7.49583500"><ele></ele><time>2016-9-12T22:1:26Z</time></trkpt>
<trkpt lat="46.07362809" lon="7.49568522"><ele></ele><time>2016-9-12T22:1:29Z</time></trkpt>
<trkpt lat="46.07347637" lon="7.49552630"><ele></ele><time>2016-9-12T22:1:32Z</time></trkpt>
<trkpt lat="46.07331561" lon="7.49532488"><ele></ele><time>2016-9-12T22:1:35Z</time></trkpt>
<trkpt lat="46.07329583" lon="7.49514467"><ele></ele><time>2016-9-12T22:1:38Z</time></trkpt>
<trkpt lat="46.07329641" lon="7.49491886"><ele></ele><time>2016-9-12T22:1:41Z</time></trkpt>
<trkpt lat="46.07328594" lon="7.49488802"><ele></ele><time>2016-9-12T22:1:44Z</time></trkpt>
<trkpt lat="46.07309366" lon="7.49484451"><ele></ele><time>2016-9-12T22:1:47Z</time></trkpt>
<trkpt lat="46.07297321" lon="7.49476464"><ele></ele><time>2016-9-12T22:1:50Z</time></trkpt>
<trkpt lat="46.07281613" lon="7.49465383"><ele></ele><time>2016-9-12T22:1:53Z</time></trkpt>
<trkpt lat="46.07266434" lon="7.49455048"><ele></ele><time>2016-9-12T22:1:56Z</time></trkpt>
<trkpt lat="46.07256970" lon="7.49444260"><ele></ele><time>2016-9-12T22:1:59Z</time></trkpt>
<trkpt lat="46.07246057" lon="7.49431335"><ele></ele><time>2016-9-12T22:2:2Z</time></trkpt>
<trkpt lat="46.07235337" lon="7.49418494"><ele></ele><time>2016-9-12T22:2:5Z</time></trkpt>
<trkpt lat="46.07229461" lon="7.49405435"><ele></ele><time>2016-9-12T22:2:8Z</time></trkpt>
<trkpt lat="46.07233359" lon="7.49405695"><ele></ele><time>2016-9-12T22:2:11Z</time></trkpt>
<trkpt lat="46.07213493" lon="7.49382997"><ele></ele><time>2016-9-12T22:2:14Z</time></trkpt>
<trkpt lat="46.07202019" lon="7.49361573"><ele></ele><time>2016-9-12T22:2:17Z</time></trkpt>
<trkpt lat="46.07194467" lon="7.49352219"><ele></ele><time>2016-9-12T22:2:20Z</time></trkpt>
<trkpt lat="46.07187619" lon="7.49339738"><ele></ele><time>2016-9-12T22:2:23Z</time></trkpt>
<trkpt lat="46.07178734" lon="7.49326897"><ele></ele><time>2016-9-12T22:2:26Z</time></trkpt>
<trkpt lat="46.07164920" lon="7.49316520"><ele></ele><time>2016-9-12T22:2:29Z</time></trkpt>
<trkpt lat="46.07150495" lon="7.49308281"><ele></ele><time>2016-9-12T22:2:32Z</time></trkpt>
<trkpt lat="46.07137369" lon="7.49302749"><ele></ele><time>2016-9-12T22:2:35Z</time></trkpt>
<trkpt lat="46.07125601" lon="7.49296781"><ele></ele><time>2016-9-12T22:2:38Z</time></trkpt>
<trkpt lat="46.07114235" lon="7.49289296"><ele></ele><time>2016-9-12T22:2:41Z</time></trkpt>
<trkpt lat="46.07103196" lon="7.49282523"><ele></ele><time>2016-9-12T22:2:44Z</time></trkpt>
<trkpt lat="46.07087069" lon="7.49273756"><ele></ele><time>2016-9-12T22:2:47Z</time></trkpt>
<trkpt lat="46.07072778" lon="7.49267997"><ele></ele><time>2016-9-12T22:2:50Z</time></trkpt>
<trkpt lat="46.07059233" lon="7.49266044"><ele></ele><time>2016-9-12T22:2:53Z</time></trkpt>
<trkpt lat="46.07029066" lon="7.49272171"><ele></ele><time>2016-9-12T22:2:56Z</time></trkpt>
<trkpt lat="46.07019637" lon="7.49278978"><ele></ele><time>2016-9-12T22:2:59Z</time></trkpt>
<trkpt lat="46.07012638" lon="7.49272691"><ele></ele><time>2016-9-12T22:3:2Z</time></trkpt>
<trkpt lat="46.06999394" lon="7.49265390"><ele></ele><time>2016-9-12T22:3:5Z</time></trkpt>
<trkpt lat="46.06886859" lon="7.49305079"><ele></ele><time>2016-9-12T22:3:8Z</time></trkpt>
<trkpt lat="46.06863239" lon="7.49310896"><ele></ele><time>2016-9-12T22:3:11Z</time></trkpt>
<trkpt lat="46.06845788" lon="7.49322278"><ele></ele><time>2016-9-12T22:3:14Z</time></trkpt>
<trkpt lat="46.06831086" lon="7.49332722"><ele></ele><time>2016-9-12T22:3:17Z</time></trkpt>
<trkpt lat="46.06827155" lon="7.49337877"><ele></ele><time>2016-9-12T22:3:20Z</time></trkpt>
<trkpt lat="46.06824112" lon="7.49339277"><ele></ele><time>2016-9-12T22:3:23Z</time></trkpt>
<trkpt lat="46.06809427" lon="7.49347659"><ele></ele><time>2016-9-12T22:3:26Z</time></trkpt>
<trkpt lat="46.06794298" lon="7.49352939"><ele></ele><time>2016-9-12T22:3:29Z</time></trkpt>
<trkpt lat="46.06779571" lon="7.49355312"><ele></ele><time>2016-9-12T22:3:32Z</time></trkpt>
<trkpt lat="46.06769839" lon="7.49352101"><ele></ele><time>2016-9-12T22:3:35Z</time></trkpt>
<trkpt lat="46.06756261" lon="7.49351950"><ele></ele><time>2016-9-12T22:3:38Z</time></trkpt>
<trkpt lat="46.06741441" lon="7.49352822"><ele></ele><time>2016-9-12T22:3:41Z</time></trkpt>
<trkpt lat="46.06725005" lon="7.49349168"><ele></ele><time>2016-9-12T22:3:44Z</time></trkpt>
<trkpt lat="46.06710537" lon="7.49347173"><ele></ele><time>2016-9-12T22:3:47Z</time></trkpt>
<trkpt lat="46.06695919" lon="7.49342412"><ele></ele><time>2016-9-12T22:3:50Z</time></trkpt>
<trkpt lat="46.06682550" lon="7.49340383"><ele></ele><time>2016-9-12T22:3:53Z</time></trkpt>
<trkpt lat="46.06664605" lon="7.49336804"><ele></ele><time>2016-9-12T22:3:56Z</time></trkpt>
<trkpt lat="46.06641487" lon="7.49329512"><ele></ele><time>2016-9-12T22:3:59Z</time></trkpt>
<trkpt lat="46.06626911" lon="7.49322874"><ele></ele><time>2016-9-12T22:4:2Z</time></trkpt>
<trkpt lat="46.06609695" lon="7.49317895"><ele></ele><time>2016-9-12T22:4:5Z</time></trkpt>
<trkpt lat="46.06608286" lon="7.49317492"><ele></ele><time>2016-9-12T22:4:8Z</time></trkpt>
<trkpt lat="46.06604858" lon="7.49303017"><ele></ele><time>2016-9-12T22:4:11Z</time></trkpt>
<trkpt lat="46.06600123" lon="7.49296362"><ele></ele><time>2016-9-12T22:4:14Z</time></trkpt>
<trkpt lat="46.06600483" lon="7.49299589"><ele></ele><time>2016-9-12T22:4:17Z</time></trkpt>
<trkpt lat="46.06602126" lon="7.49297988"><ele></ele><time>2016-9-12T22:4:20Z</time></trkpt>
<trkpt lat="46.06607063" lon="7.49291617"><ele></ele><time>2016-9-12T22:4:23Z</time></trkpt>
<trkpt lat="46.06602939" lon="7.49287091"><ele></ele><time>2016-9-12T22:4:26Z</time></trkpt>
<trkpt lat="46.06580526" lon="7.49264971"><ele></ele><time>2016-9-12T22:4:29Z</time></trkpt>
<trkpt lat="46.06568640" lon="7.49240848"><ele></ele><time>2016-9-12T22:4:32Z</time></trkpt>
<trkpt lat="46.06547166" lon="7.49210481"><ele></ele><time>2016-9-12T22:4:35Z</time></trkpt>
<trkpt lat="46.06502968" lon="7.49189425"><ele></ele><time>2016-9-12T22:4:38Z</time></trkpt>
<trkpt lat="46.06475618" lon="7.49189291"><ele></ele><time>2016-9-12T22:4:41Z</time></trkpt>
<trkpt lat="46.06451930" lon="7.49182820"><ele></ele><time>2016-9-12T22:4:44Z</time></trkpt>
<trkpt lat="46.06430138" lon="7.49188738"><ele></ele><time>2016-9-12T22:4:47Z</time></trkpt>
<trkpt lat="46.06405109" lon="7.49201269"><ele></ele><time>2016-9-12T22:4:50Z</time></trkpt>
<trkpt lat="46.06381020" lon="7.49211629"><ele></ele><time>2016-9-12T22:4:53Z</time></trkpt>
<trkpt lat="46.06363535" lon="7.49208226"><ele></ele><time>2016-9-12T22:4:56Z</time></trkpt>
<trkpt lat="46.06347752" lon="7.49203423"><ele></ele><time>2016-9-12T22:4:59Z</time></trkpt>
<trkpt lat="46.06331667" lon="7.49204856"><ele></ele><time>2016-9-12T22:5:2Z</time></trkpt>
<trkpt lat="46.06309203" lon="7.49197505"><ele></ele><time>2016-9-12T22:5:5Z</time></trkpt>
<trkpt lat="46.06298810" lon="7.49193298"><ele></ele><time>2016-9-12T22:5:8Z</time></trkpt>
<trkpt lat="46.06280948" lon="7.49206415"><ele></ele><time>2016-9-12T22:5:11Z</time></trkpt>
<trkpt lat="46.06256003" lon="7.49207748"><ele></ele><time>2016-9-12T22:5:14Z</time></trkpt>
<trkpt lat="46.06227597" lon="7.49198444"><ele></ele><time>2016-9-12T22:5:17Z</time></trkpt>
<trkpt lat="46.06205452" lon="7.49192887"><ele></ele><time>2016-9-12T22:5:20Z</time></trkpt>
<trkpt lat="46.06179611" lon="7.49181706"><ele></ele><time>2016-9-12T22:5:23Z</time></trkpt>
<trkpt lat="46.06158044" lon="7.49169367"><ele></ele><time>2016-9-12T22:5:26Z</time></trkpt>
<trkpt lat="46.06155161" lon="7.49168647"><ele></ele><time>2016-9-12T22:5:29Z</time></trkpt>
<trkpt lat="46.06145932" lon="7.49173835"><ele></ele><time>2016-9-12T22:5:32Z</time></trkpt>
<trkpt lat="46.06128238" lon="7.49166761"><ele></ele><time>2016-9-12T22:5:35Z</time></trkpt>
<trkpt lat="46.06123980" lon="7.49163190"><ele></ele><time>2016-9-12T22:5:38Z</time></trkpt>
<trkpt lat="46.06117954" lon="7.49162947"><ele></ele><time>2016-9-12T22:5:41Z</time></trkpt>
<trkpt lat="46.06100419" lon="7.49168370"><ele></ele><time>2016-9-12T22:5:44Z</time></trkpt>
<trkpt lat="46.06099010" lon="7.49168898"><ele></ele><time>2016-9-12T22:5:47Z</time></trkpt>
<trkpt lat="46.06093990" lon="7.49169602"><ele></ele><time>2016-9-12T22:5:50Z</time></trkpt>
<trkpt lat="46.06093721" lon="7.49168823"><ele></ele><time>2016-9-12T22:5:53Z</time></trkpt>
<trkpt lat="46.06077125" lon="7.49160491"><ele></ele><time>2016-9-12T22:5:56Z</time></trkpt>
<trkpt lat="46.06058425" lon="7.49162394"><ele></ele><time>2016-9-12T22:5:59Z</time></trkpt>
<trkpt lat="46.06042659" lon="7.49154816"><ele></ele><time>2016-9-12T22:6:2Z</time></trkpt>
<trkpt lat="46.06024001" lon="7.49149377"><ele></ele><time>2016-9-12T22:6:5Z</time></trkpt>
<trkpt lat="46.06016306" lon="7.49146191"><ele></ele><time>2016-9-12T22:6:8Z</time></trkpt>
<trkpt lat="46.06013934" lon="7.49145303"><ele></ele><time>2016-9-12T22:6:11Z</time></trkpt>
<trkpt lat="46.06010665" lon="7.49142218"><ele></ele><time>2016-9-12T22:6:14Z</time></trkpt>
<trkpt lat="46.06000003" lon="7.49131062"><ele></ele><time>2016-9-12T22:6:17Z</time></trkpt>
<trkpt lat="46.05987481" lon="7.49124977"><ele></ele><time>2016-9-12T22:6:20Z</time></trkpt>
<trkpt lat="46.05972603" lon="7.49122990"><ele></ele><time>2016-9-12T22:6:23Z</time></trkpt>
<trkpt lat="46.05958689" lon="7.49122974"><ele></ele><time>2016-9-12T22:6:26Z</time></trkpt>
<trkpt lat="46.05943032" lon="7.49116411"><ele></ele><time>2016-9-12T22:6:29Z</time></trkpt>
<trkpt lat="46.05934038" lon="7.49107651"><ele></ele><time>2016-9-12T22:6:32Z</time></trkpt>
<trkpt lat="46.05922253" lon="7.49093327"><ele></ele><time>2016-9-12T22:6:35Z</time></trkpt>
<trkpt lat="46.05914089" lon="7.49082313"><ele></ele><time>2016-9-12T22:6:38Z</time></trkpt>
<trkpt lat="46.05911658" lon="7.49081106"><ele></ele><time>2016-9-12T22:6:41Z</time></trkpt>
<trkpt lat="46.05911516" lon="7.49071534"><ele></ele><time>2016-9-12T22:6:44Z</time></trkpt>
<trkpt lat="46.05899898" lon="7.49056874"><ele></ele><time>2016-9-12T22:6:47Z</time></trkpt>
<trkpt lat="46.05887325" lon="7.49036992"><ele></ele><time>2016-9-12T22:6:50Z</time></trkpt>
<trkpt lat="46.05878768" lon="7.49024536"><ele></ele><time>2016-9-12T22:6:53Z</time></trkpt>
<trkpt lat="46.05870268" lon="7.49009944"><ele></ele><time>2016-9-12T22:6:56Z</time></trkpt>
<trkpt lat="46.05855399" lon="7.49003246"><ele></ele><time>2016-9-12T22:6:59Z</time></trkpt>
<trkpt lat="46.05840429" lon="7.49004847"><ele></ele><time>2016-9-12T22:7:2Z</time></trkpt>
<trkpt lat="46.05835676" lon="7.49000824"><ele></ele><time>2016-9-12T22:7:5Z</time></trkpt>
<trkpt lat="46.05831821" lon="7.48986206"><ele></ele><time>2016-9-12T22:7:8Z</time></trkpt>
<trkpt lat="46.05829641" lon="7.48962360"><ele></ele><time>2016-9-12T22:7:11Z</time></trkpt>
<trkpt lat="46.05821745" lon="7.48946870"><ele></ele><time>2016-9-12T22:7:14Z</time></trkpt>
<trkpt lat="46.05805862" lon="7.48936895"><ele></ele><time>2016-9-12T22:7:17Z</time></trkpt>
<trkpt lat="46.05788251" lon="7.48940432"><ele></ele><time>2016-9-12T22:7:20Z</time></trkpt>
<trkpt lat="46.05773080" lon="7.48944439"><ele></ele><time>2016-9-12T22:7:23Z</time></trkpt>
<trkpt lat="46.05763064" lon="7.48929469"><ele></ele><time>2016-9-12T22:7:26Z</time></trkpt>
<trkpt lat="46.05743023" lon="7.48917047"><ele></ele><time>2016-9-12T22:7:29Z</time></trkpt>
<trkpt lat="46.05719922" lon="7.48927876"><ele></ele><time>2016-9-12T22:7:32Z</time></trkpt>
<trkpt lat="46.05699839" lon="7.48923476"><ele></ele><time>2016-9-12T22:7:35Z</time></trkpt>
<trkpt lat="46.05678247" lon="7.48917365"><ele></ele><time>2016-9-12T22:7:38Z</time></trkpt>
<trkpt lat="46.05655666" lon="7.48912596"><ele></ele><time>2016-9-12T22:7:41Z</time></trkpt>
<trkpt lat="46.05635148" lon="7.48892077"><ele></ele><time>2016-9-12T22:7:44Z</time></trkpt>
<trkpt lat="46.05622516" lon="7.48859430"><ele></ele><time>2016-9-12T22:7:47Z</time></trkpt>
<trkpt lat="46.05610304" lon="7.48848919"><ele></ele><time>2016-9-12T22:7:50Z</time></trkpt>
<trkpt lat="46.05600581" lon="7.48834644"><ele></ele><time>2016-9-12T22:7:53Z</time></trkpt>
<trkpt lat="46.05585091" lon="7.48818694"><ele></ele><time>2016-9-12T22:7:56Z</time></trkpt>
<trkpt lat="46.05575812" lon="7.48810002"><ele></ele><time>2016-9-12T22:7:59Z</time></trkpt>
<trkpt lat="46.05560591" lon="7.48793741"><ele></ele><time>2016-9-12T22:8:2Z</time></trkpt>
<trkpt lat="46.05540139" lon="7.48774420"><ele></ele><time>2016-9-12T22:8:5Z</time></trkpt>
<trkpt lat="46.05516644" lon="7.48758570"><ele></ele><time>2016-9-12T22:8:8Z</time></trkpt>
<trkpt lat="46.05492982" lon="7.48744941"><ele></ele><time>2016-9-12T22:8:11Z</time></trkpt>
<trkpt lat="46.05463997" lon="7.48733676"><ele></ele><time>2016-9-12T22:8:14Z</time></trkpt>
<trkpt lat="46.05459396" lon="7.48741983"><ele></ele><time>2016-9-12T22:8:17Z</time></trkpt>
<trkpt lat="46.05445943" lon="7.48764966"><ele></ele><time>2016-9-12T22:8:20Z</time></trkpt>
<trkpt lat="46.05438818" lon="7.48784739"><ele></ele><time>2016-9-12T22:8:23Z</time></trkpt>
<trkpt lat="46.05437502" lon="7.48787647"><ele></ele><time>2016-9-12T22:8:26Z</time></trkpt>
<trkpt lat="46.05436957" lon="7.48794554"><ele></ele><time>2016-9-12T22:8:29Z</time></trkpt>
<trkpt lat="46.05430964" lon="7.48830973"><ele></ele><time>2016-9-12T22:8:32Z</time></trkpt>
<trkpt lat="46.05423496" lon="7.48835826"><ele></ele><time>2016-9-12T22:8:35Z</time></trkpt>
<trkpt lat="46.05424544" lon="7.48834787"><ele></ele><time>2016-9-12T22:8:38Z</time></trkpt>
<trkpt lat="46.05424728" lon="7.48842088"><ele></ele><time>2016-9-12T22:8:41Z</time></trkpt>
<trkpt lat="46.05417646" lon="7.48846899"><ele></ele><time>2016-9-12T22:8:44Z</time></trkpt>
<trkpt lat="46.05416941" lon="7.48853277"><ele></ele><time>2016-9-12T22:8:47Z</time></trkpt>
<trkpt lat="46.05412558" lon="7.48855993"><ele></ele><time>2016-9-12T22:8:50Z</time></trkpt>
<trkpt lat="46.05410697" lon="7.48864744"><ele></ele><time>2016-9-12T22:8:53Z</time></trkpt>
<trkpt lat="46.05410756" lon="7.48865456"><ele></ele><time>2016-9-12T22:8:56Z</time></trkpt>
<trkpt lat="46.05403841" lon="7.48865993"><ele></ele><time>2016-9-12T22:8:59Z</time></trkpt>
<trkpt lat="46.05404310" lon="7.48868356"><ele></ele><time>2016-9-12T22:9:2Z</time></trkpt>
<trkpt lat="46.05415408" lon="7.48882941"><ele></ele><time>2016-9-12T22:9:5Z</time></trkpt>
<trkpt lat="46.05419029" lon="7.48903711"><ele></ele><time>2016-9-12T22:9:8Z</time></trkpt>
<trkpt lat="46.05404964" lon="7.48903401"><ele></ele><time>2016-9-12T22:9:11Z</time></trkpt>
<trkpt lat="46.05395551" lon="7.48901691"><ele></ele><time>2016-9-12T22:9:14Z</time></trkpt>
<trkpt lat="46.05396791" lon="7.48929217"><ele></ele><time>2016-9-12T22:9:17Z</time></trkpt>
<trkpt lat="46.05392517" lon="7.48939946"><ele></ele><time>2016-9-12T22:9:20Z</time></trkpt>
<trkpt lat="46.05376591" lon="7.48953408"><ele></ele><time>2016-9-12T22:9:23Z</time></trkpt>
<trkpt lat="46.05384478" lon="7.48973281"><ele></ele><time>2016-9-12T22:9:26Z</time></trkpt>
<trkpt lat="46.05393615" lon="7.48995963"><ele></ele><time>2016-9-12T22:9:29Z</time></trkpt>
<trkpt lat="46.05396263" lon="7.49008393"><ele></ele><time>2016-9-12T22:9:32Z</time></trkpt>
<trkpt lat="46.05398744" lon="7.49010690"><ele></ele><time>2016-9-12T22:9:35Z</time></trkpt>
<trkpt lat="46.05399298" lon="7.49009583"><ele></ele><time>2016-9-12T22:9:38Z</time></trkpt>
<trkpt lat="46.05399440" lon="7.49011855"><ele></ele><time>2016-9-12T22:9:41Z</time></trkpt>
<trkpt lat="46.05408291" lon="7.49020295"><ele></ele><time>2016-9-12T22:9:44Z</time></trkpt>
<trkpt lat="46.05401653" lon="7.49031116"><ele></ele><time>2016-9-12T22:9:47Z</time></trkpt>
<trkpt lat="46.05026881" lon="7.49036489"><ele></ele><time>2016-9-12T22:9:50Z</time></trkpt>
<trkpt lat="46.04967998" lon="7.48987136"><ele></ele><time>2016-9-12T22:9:53Z</time></trkpt>
<trkpt lat="46.04842605" lon="7.48885489"><ele></ele><time>2016-9-12T22:9:56Z</time></trkpt>
<trkpt lat="46.04823930" lon="7.48871986"><ele></ele><time>2016-9-12T22:9:59Z</time></trkpt>
<trkpt lat="46.04804199" lon="7.48877459"><ele></ele><time>2016-9-12T22:10:2Z</time></trkpt>
<trkpt lat="46.04801190" lon="7.48899763"><ele></ele><time>2016-9-12T22:10:5Z</time></trkpt>
<trkpt lat="46.04787167" lon="7.48908229"><ele></ele><time>2016-9-12T22:10:8Z</time></trkpt>
<trkpt lat="46.04773899" lon="7.48910140"><ele></ele><time>2016-9-12T22:10:11Z</time></trkpt>
<trkpt lat="46.04752969" lon="7.48898204"><ele></ele><time>2016-9-12T22:10:14Z</time></trkpt>
<trkpt lat="46.04737546" lon="7.48887216"><ele></ele><time>2016-9-12T22:10:17Z</time></trkpt>
<trkpt lat="46.04709894" lon="7.48874467"><ele></ele><time>2016-9-12T22:10:20Z</time></trkpt>
<trkpt lat="46.04678747" lon="7.48865599"><ele></ele><time>2016-9-12T22:10:23Z</time></trkpt>
<trkpt lat="46.04650609" lon="7.48851593"><ele></ele><time>2016-9-12T22:10:26Z</time></trkpt>
<trkpt lat="46.04601986" lon="7.48848424"><ele></ele><time>2016-9-12T22:10:29Z</time></trkpt>
<trkpt lat="46.04574158" lon="7.48863847"><ele></ele><time>2016-9-12T22:10:32Z</time></trkpt>
<trkpt lat="46.04549515" lon="7.48887987"><ele></ele><time>2016-9-12T22:10:35Z</time></trkpt>
<trkpt lat="46.04496860" lon="7.48918992"><ele></ele><time>2016-9-12T22:10:38Z</time></trkpt>
<trkpt lat="46.04473508" lon="7.48914189"><ele></ele><time>2016-9-12T22:10:41Z</time></trkpt>
<trkpt lat="46.04458907" lon="7.48912521"><ele></ele><time>2016-9-12T22:10:44Z</time></trkpt>
<trkpt lat="46.04444314" lon="7.48933341"><ele></ele><time>2016-9-12T22:10:47Z</time></trkpt>
<trkpt lat="46.04436032" lon="7.48953114"><ele></ele><time>2016-9-12T22:10:50Z</time></trkpt>
<trkpt lat="46.04406377" lon="7.48974958"><ele></ele><time>2016-9-12T22:10:53Z</time></trkpt>
<trkpt lat="46.04369245" lon="7.49000874"><ele></ele><time>2016-9-12T22:10:56Z</time></trkpt>
<trkpt lat="46.04348970" lon="7.49013456"><ele></ele><time>2016-9-12T22:10:59Z</time></trkpt>
<trkpt lat="46.04335114" lon="7.49031125"><ele></ele><time>2016-9-12T22:11:2Z</time></trkpt>
<trkpt lat="46.04332214" lon="7.49032809"><ele></ele><time>2016-9-12T22:11:5Z</time></trkpt>
<trkpt lat="46.04309424" lon="7.49037981"><ele></ele><time>2016-9-12T22:11:8Z</time></trkpt>
<trkpt lat="46.04302752" lon="7.49043329"><ele></ele><time>2016-9-12T22:11:11Z</time></trkpt>
<trkpt lat="46.04282191" lon="7.49036875"><ele></ele><time>2016-9-12T22:11:14Z</time></trkpt>
<trkpt lat="46.04257565" lon="7.49023614"><ele></ele><time>2016-9-12T22:11:17Z</time></trkpt>
<trkpt lat="46.04247834" lon="7.49019038"><ele></ele><time>2016-9-12T22:11:20Z</time></trkpt>
<trkpt lat="46.04227197" lon="7.49003934"><ele></ele><time>2016-9-12T22:11:23Z</time></trkpt>
<trkpt lat="46.04201406" lon="7.48992769"><ele></ele><time>2016-9-12T22:11:26Z</time></trkpt>
<trkpt lat="46.04170234" lon="7.48974396"><ele></ele><time>2016-9-12T22:11:29Z</time></trkpt>
<trkpt lat="46.04154107" lon="7.48955746"><ele></ele><time>2016-9-12T22:11:32Z</time></trkpt>
<trkpt lat="46.04144937" lon="7.48947926"><ele></ele><time>2016-9-12T22:11:35Z</time></trkpt>
<trkpt lat="46.04121795" lon="7.48947456"><ele></ele><time>2016-9-12T22:11:38Z</time></trkpt>
<trkpt lat="46.04093154" lon="7.48932444"><ele></ele><time>2016-9-12T22:11:41Z</time></trkpt>
<trkpt lat="46.04086591" lon="7.48914977"><ele></ele><time>2016-9-12T22:11:44Z</time></trkpt>
<trkpt lat="46.04067321" lon="7.48905572"><ele></ele><time>2016-9-12T22:11:47Z</time></trkpt>
<trkpt lat="46.04039912" lon="7.48898171"><ele></ele><time>2016-9-12T22:11:50Z</time></trkpt>
<trkpt lat="46.04022495" lon="7.48877610"><ele></ele><time>2016-9-12T22:11:53Z</time></trkpt>
<trkpt lat="46.03999738" lon="7.48853747"><ele></ele><time>2016-9-12T22:11:56Z</time></trkpt>
<trkpt lat="46.03979805" lon="7.48842171"><ele></ele><time>2016-9-12T22:11:59Z</time></trkpt>
<trkpt lat="46.03960603" lon="7.48840277"><ele></ele><time>2016-9-12T22:12:2Z</time></trkpt>
<trkpt lat="46.03926983" lon="7.48835055"><ele></ele><time>2016-9-12T22:12:5Z</time></trkpt>
<trkpt lat="46.03903673" lon="7.48825148"><ele></ele><time>2016-9-12T22:12:8Z</time></trkpt>
<trkpt lat="46.03877110" lon="7.48813028"><ele></ele><time>2016-9-12T22:12:11Z</time></trkpt>
<trkpt lat="46.03851085" lon="7.48794621"><ele></ele><time>2016-9-12T22:12:14Z</time></trkpt>
<trkpt lat="46.03813182" lon="7.48772979"><ele></ele><time>2016-9-12T22:12:17Z</time></trkpt>
<trkpt lat="46.03786410" lon="7.48773172"><ele></ele><time>2016-9-12T22:12:20Z</time></trkpt>
<trkpt lat="46.03734082" lon="7.48784990"><ele></ele><time>2016-9-12T22:12:23Z</time></trkpt>
<trkpt lat="46.03718215" lon="7.48774781"><ele></ele><time>2016-9-12T22:12:26Z</time></trkpt>
<trkpt lat="46.03704141" lon="7.48770691"><ele></ele><time>2016-9-12T22:12:29Z</time></trkpt>
<trkpt lat="46.03681494" lon="7.48768226"><ele></ele><time>2016-9-12T22:12:32Z</time></trkpt>
<trkpt lat="46.03664772" lon="7.48765502"><ele></ele><time>2016-9-12T22:12:35Z</time></trkpt>
<trkpt lat="46.03640162" lon="7.48751270"><ele></ele><time>2016-9-12T22:12:38Z</time></trkpt>
<trkpt lat="46.03632577" lon="7.48749585"><ele></ele><time>2016-9-12T22:12:41Z</time></trkpt>
<trkpt lat="46.03628101" lon="7.48751437"><ele></ele><time>2016-9-12T22:12:44Z</time></trkpt>
<trkpt lat="46.03623876" lon="7.48749937"><ele></ele><time>2016-9-12T22:12:47Z</time></trkpt>
<trkpt lat="46.03620742" lon="7.48748445"><ele></ele><time>2016-9-12T22:12:50Z</time></trkpt>
<trkpt lat="46.03618965" lon="7.48746450"><ele></ele><time>2016-9-12T22:12:53Z</time></trkpt>
<trkpt lat="46.03617867" lon="7.48745813"><ele></ele><time>2016-9-12T22:12:56Z</time></trkpt>
<trkpt lat="46.03603844" lon="7.48729292"><ele></ele><time>2016-9-12T22:12:59Z</time></trkpt>
<trkpt lat="46.03581388" lon="7.48729150"><ele></ele><time>2016-9-12T22:13:2Z</time></trkpt>
<trkpt lat="46.03565957" lon="7.48741069"><ele></ele><time>2016-9-12T22:13:5Z</time></trkpt>
<trkpt lat="46.03550417" lon="7.48745629"><ele></ele><time>2016-9-12T22:13:8Z</time></trkpt>
<trkpt lat="46.03479205" lon="7.48760230"><ele></ele><time>2016-9-12T22:13:11Z</time></trkpt>
<trkpt lat="46.03459088" lon="7.48751337"><ele></ele><time>2016-9-12T22:13:14Z</time></trkpt>
<trkpt lat="46.03438326" lon="7.48747079"><ele></ele><time>2016-9-12T22:13:17Z</time></trkpt>
<trkpt lat="46.03423306" lon="7.48739862"><ele></ele><time>2016-9-12T22:13:20Z</time></trkpt>
<trkpt lat="46.03413658" lon="7.48716451"><ele></ele><time>2016-9-12T22:13:23Z</time></trkpt>
<trkpt lat="46.03413935" lon="7.48702898"><ele></ele><time>2016-9-12T22:13:26Z</time></trkpt>
<trkpt lat="46.03411026" lon="7.48690308"><ele></ele><time>2016-9-12T22:13:29Z</time></trkpt>
<trkpt lat="46.03404061" lon="7.48674558"><ele></ele><time>2016-9-12T22:13:32Z</time></trkpt>
<trkpt lat="46.03396308" lon="7.48655842"><ele></ele><time>2016-9-12T22:13:35Z</time></trkpt>
<trkpt lat="46.03395369" lon="7.48655205"><ele></ele><time>2016-9-12T22:13:38Z</time></trkpt>
<trkpt lat="46.03390474" lon="7.48654366"><ele></ele><time>2016-9-12T22:13:41Z</time></trkpt>
<trkpt lat="46.03377063" lon="7.48650008"><ele></ele><time>2016-9-12T22:13:44Z</time></trkpt>
<trkpt lat="46.03360618" lon="7.48645130"><ele></ele><time>2016-9-12T22:13:47Z</time></trkpt>
<trkpt lat="46.03348430" lon="7.48644652"><ele></ele><time>2016-9-12T22:13:50Z</time></trkpt>
<trkpt lat="46.03338221" lon="7.48643328"><ele></ele><time>2016-9-12T22:13:53Z</time></trkpt>
<trkpt lat="46.03324424" lon="7.48636899"><ele></ele><time>2016-9-12T22:13:56Z</time></trkpt>
<trkpt lat="46.03311106" lon="7.48635407"><ele></ele><time>2016-9-12T22:13:59Z</time></trkpt>
<trkpt lat="46.03301039" lon="7.48630822"><ele></ele><time>2016-9-12T22:14:2Z</time></trkpt>
<trkpt lat="46.03290872" lon="7.48629724"><ele></ele><time>2016-9-12T22:14:5Z</time></trkpt>
<trkpt lat="46.03275131" lon="7.48633236"><ele></ele><time>2016-9-12T22:14:8Z</time></trkpt>
<trkpt lat="46.03258216" lon="7.48628014"><ele></ele><time>2016-9-12T22:14:11Z</time></trkpt>
<trkpt lat="46.03239591" lon="7.48620302"><ele></ele><time>2016-9-12T22:14:14Z</time></trkpt>
<trkpt lat="46.03230732" lon="7.48618064"><ele></ele><time>2016-9-12T22:14:17Z</time></trkpt>
<trkpt lat="46.03216315" lon="7.48613069"><ele></ele><time>2016-9-12T22:14:20Z</time></trkpt>
<trkpt lat="46.03199467" lon="7.48593162"><ele></ele><time>2016-9-12T22:14:23Z</time></trkpt>
<trkpt lat="46.03198168" lon="7.48591905"><ele></ele><time>2016-9-12T22:14:26Z</time></trkpt>
<trkpt lat="46.03186592" lon="7.48592583"><ele></ele><time>2016-9-12T22:14:29Z</time></trkpt>
<trkpt lat="46.03178194" lon="7.48594319"><ele></ele><time>2016-9-12T22:14:32Z</time></trkpt>
<trkpt lat="46.03167188" lon="7.48590496"><ele></ele><time>2016-9-12T22:14:35Z</time></trkpt>
<trkpt lat="46.03151229" lon="7.48585685"><ele></ele><time>2016-9-12T22:14:38Z</time></trkpt>
<trkpt lat="46.03149670" lon="7.48585199"><ele></ele><time>2016-9-12T22:14:41Z</time></trkpt>
<trkpt lat="46.03144172" lon="7.48584143"><ele></ele><time>2016-9-12T22:14:44Z</time></trkpt>
<trkpt lat="46.03140852" lon="7.48582374"><ele></ele><time>2016-9-12T22:14:47Z</time></trkpt>
<trkpt lat="46.03128548" lon="7.48577530"><ele></ele><time>2016-9-12T22:14:50Z</time></trkpt>
<trkpt lat="46.03116402" lon="7.48568159"><ele></ele><time>2016-9-12T22:14:53Z</time></trkpt>
<trkpt lat="46.03097719" lon="7.48560037"><ele></ele><time>2016-9-12T22:14:56Z</time></trkpt>
<trkpt lat="46.03086328" lon="7.48553021"><ele></ele><time>2016-9-12T22:14:59Z</time></trkpt>
<trkpt lat="46.03073755" lon="7.48542870"><ele></ele><time>2016-9-12T22:15:2Z</time></trkpt>
<trkpt lat="46.03057469" lon="7.48533675"><ele></ele><time>2016-9-12T22:15:5Z</time></trkpt>
<trkpt lat="46.03043631" lon="7.48529560"><ele></ele><time>2016-9-12T22:15:8Z</time></trkpt>
<trkpt lat="46.03036188" lon="7.48525553"><ele></ele><time>2016-9-12T22:15:11Z</time></trkpt>
<trkpt lat="46.03030060" lon="7.48525067"><ele></ele><time>2016-9-12T22:15:14Z</time></trkpt>
<trkpt lat="46.03012970" lon="7.48523835"><ele></ele><time>2016-9-12T22:15:17Z</time></trkpt>
<trkpt lat="46.02993373" lon="7.48530096"><ele></ele><time>2016-9-12T22:15:20Z</time></trkpt>
<trkpt lat="46.02974094" lon="7.48533323"><ele></ele><time>2016-9-12T22:15:23Z</time></trkpt>
<trkpt lat="46.02955051" lon="7.48537313"><ele></ele><time>2016-9-12T22:15:26Z</time></trkpt>
<trkpt lat="46.02933744" lon="7.48541638"><ele></ele><time>2016-9-12T22:15:29Z</time></trkpt>
<trkpt lat="46.02924557" lon="7.48532267"><ele></ele><time>2016-9-12T22:15:32Z</time></trkpt>
<trkpt lat="46.02914524" lon="7.48535813"><ele></ele><time>2016-9-12T22:15:35Z</time></trkpt>
<trkpt lat="46.02885129" lon="7.48537246"><ele></ele><time>2016-9-12T22:15:38Z</time></trkpt>
<trkpt lat="46.02869128" lon="7.48524212"><ele></ele><time>2016-9-12T22:15:41Z</time></trkpt>
<trkpt lat="46.02864493" lon="7.48517624"><ele></ele><time>2016-9-12T22:15:44Z</time></trkpt>
<trkpt lat="46.02859749" lon="7.48483216"><ele></ele><time>2016-9-12T22:15:47Z</time></trkpt>
<trkpt lat="46.02854929" lon="7.48437518"><ele></ele><time>2016-9-12T22:15:50Z</time></trkpt>
<trkpt lat="46.02812265" lon="7.48371611"><ele></ele><time>2016-9-12T22:15:53Z</time></trkpt>
<trkpt lat="46.02787203" lon="7.48361737"><ele></ele><time>2016-9-12T22:15:56Z</time></trkpt>
<trkpt lat="46.02767682" lon="7.48368795"><ele></ele><time>2016-9-12T22:15:59Z</time></trkpt>
<trkpt lat="46.02751194" lon="7.48374654"><ele></ele><time>2016-9-12T22:16:2Z</time></trkpt>
<trkpt lat="46.02743894" lon="7.48375098"><ele></ele><time>2016-9-12T22:16:5Z</time></trkpt>
<trkpt lat="46.02738949" lon="7.48382173"><ele></ele><time>2016-9-12T22:16:8Z</time></trkpt>
<trkpt lat="46.02721187" lon="7.48370916"><ele></ele><time>2016-9-12T22:16:11Z</time></trkpt>
<trkpt lat="46.02695740" lon="7.48362676"><ele></ele><time>2016-9-12T22:16:14Z</time></trkpt>
<trkpt lat="46.02670720" lon="7.48358695"><ele></ele><time>2016-9-12T22:16:17Z</time></trkpt>
<trkpt lat="46.02642816" lon="7.48361260"><ele></ele><time>2016-9-12T22:16:20Z</time></trkpt>
<trkpt lat="46.02610881" lon="7.48364654"><ele></ele><time>2016-9-12T22:16:23Z</time></trkpt>
<trkpt lat="46.02581243" lon="7.48366130"><ele></ele><time>2016-9-12T22:16:26Z</time></trkpt>
<trkpt lat="46.02559048" lon="7.48353112"><ele></ele><time>2016-9-12T22:16:29Z</time></trkpt>
<trkpt lat="46.02533726" lon="7.48333138"><ele></ele><time>2016-9-12T22:16:32Z</time></trkpt>
<trkpt lat="46.02499201" lon="7.48306626"><ele></ele><time>2016-9-12T22:16:35Z</time></trkpt>
<trkpt lat="46.02462010" lon="7.48284398"><ele></ele><time>2016-9-12T22:16:38Z</time></trkpt>
<trkpt lat="46.02426245" lon="7.48269386"><ele></ele><time>2016-9-12T22:16:41Z</time></trkpt>
<trkpt lat="46.02394352" lon="7.48251616"><ele></ele><time>2016-9-12T22:16:44Z</time></trkpt>
<trkpt lat="46.02370832" lon="7.48221567"><ele></ele><time>2016-9-12T22:16:47Z</time></trkpt>
<trkpt lat="46.02331177" lon="7.48168820"><ele></ele><time>2016-9-12T22:16:50Z</time></trkpt>
<trkpt lat="46.02284482" lon="7.48137496"><ele></ele><time>2016-9-12T22:16:53Z</time></trkpt>
<trkpt lat="46.02268682" lon="7.48132677"><ele></ele><time>2016-9-12T22:16:56Z</time></trkpt>
<trkpt lat="46.02218466" lon="7.48151561"><ele></ele><time>2016-9-12T22:16:59Z</time></trkpt>
<trkpt lat="46.02171091" lon="7.48163262"><ele></ele><time>2016-9-12T22:17:2Z</time></trkpt>
<trkpt lat="46.02164612" lon="7.48163799"><ele></ele><time>2016-9-12T22:17:5Z</time></trkpt>
<trkpt lat="46.02159549" lon="7.48165576"><ele></ele><time>2016-9-12T22:17:8Z</time></trkpt>
<trkpt lat="46.02155744" lon="7.48153581"><ele></ele><time>2016-9-12T22:17:11Z</time></trkpt>
<trkpt lat="46.02162802" lon="7.48141017"><ele></ele><time>2016-9-12T22:17:14Z</time></trkpt>
<trkpt lat="46.02185701" lon="7.48120649"><ele></ele><time>2016-9-12T22:17:17Z</time></trkpt>
<trkpt lat="46.02219212" lon="7.48096987"><ele></ele><time>2016-9-12T22:17:20Z</time></trkpt>
<trkpt lat="46.02247115" lon="7.48096601"><ele></ele><time>2016-9-12T22:17:23Z</time></trkpt>
<trkpt lat="46.02349911" lon="7.48120003"><ele></ele><time>2016-9-12T22:17:26Z</time></trkpt>
<trkpt lat="46.02395592" lon="7.48129894"><ele></ele><time>2016-9-12T22:17:29Z</time></trkpt>
<trkpt lat="46.02449597" lon="7.48158208"><ele></ele><time>2016-9-12T22:17:32Z</time></trkpt>
<trkpt lat="46.02483183" lon="7.48155409"><ele></ele><time>2016-9-12T22:17:35Z</time></trkpt>
<trkpt lat="46.02506401" lon="7.48137228"><ele></ele><time>2016-9-12T22:17:38Z</time></trkpt>
<trkpt lat="46.02530491" lon="7.48117631"><ele></ele><time>2016-9-12T22:17:41Z</time></trkpt>
<trkpt lat="46.02554647" lon="7.48117103"><ele></ele><time>2016-9-12T22:17:44Z</time></trkpt>
<trkpt lat="46.02573339" lon="7.48122677"><ele></ele><time>2016-9-12T22:17:47Z</time></trkpt>
<trkpt lat="46.02577605" lon="7.48109627"><ele></ele><time>2016-9-12T22:17:50Z</time></trkpt>
<trkpt lat="46.02577857" lon="7.48094757"><ele></ele><time>2016-9-12T22:17:53Z</time></trkpt>
<trkpt lat="46.02575745" lon="7.48089870"><ele></ele><time>2016-9-12T22:17:56Z</time></trkpt>
<trkpt lat="46.02576206" lon="7.48091304"><ele></ele><time>2016-9-12T22:17:59Z</time></trkpt>
<trkpt lat="46.02576256" lon="7.48091371"><ele></ele><time>2016-9-12T22:18:2Z</time></trkpt>
<trkpt lat="46.02576273" lon="7.48091865"><ele></ele><time>2016-9-12T22:18:5Z</time></trkpt>
<trkpt lat="46.02550775" lon="7.48089510"><ele></ele><time>2016-9-12T22:18:8Z</time></trkpt>
<trkpt lat="46.02524204" lon="7.48083198"><ele></ele><time>2016-9-12T22:18:11Z</time></trkpt>
<trkpt lat="46.02505957" lon="7.48088923"><ele></ele><time>2016-9-12T22:18:14Z</time></trkpt>
<trkpt lat="46.02496334" lon="7.48095101"><ele></ele><time>2016-9-12T22:18:17Z</time></trkpt>
<trkpt lat="46.02513107" lon="7.48074775"><ele></ele><time>2016-9-12T22:18:20Z</time></trkpt>
<trkpt lat="46.02515629" lon="7.48073601"><ele></ele><time>2016-9-12T22:18:23Z</time></trkpt>
<trkpt lat="46.02540825" lon="7.48054063"><ele></ele><time>2016-9-12T22:18:26Z</time></trkpt>
<trkpt lat="46.02567128" lon="7.48027995"><ele></ele><time>2016-9-12T22:18:29Z</time></trkpt>
<trkpt lat="46.02581075" lon="7.48026713"><ele></ele><time>2016-9-12T22:18:32Z</time></trkpt>
<trkpt lat="46.02600630" lon="7.48045958"><ele></ele><time>2016-9-12T22:18:35Z</time></trkpt>
<trkpt lat="46.02612583" lon="7.48062478"><ele></ele><time>2016-9-12T22:18:38Z</time></trkpt>
<trkpt lat="46.02632373" lon="7.48075236"><ele></ele><time>2016-9-12T22:18:41Z</time></trkpt>
<trkpt lat="46.02658901" lon="7.48085101"><ele></ele><time>2016-9-12T22:18:44Z</time></trkpt>
<trkpt lat="46.02677903" lon="7.48089259"><ele></ele><time>2016-9-12T22:18:47Z</time></trkpt>
<trkpt lat="46.02699922" lon="7.48091924"><ele></ele><time>2016-9-12T22:18:50Z</time></trkpt>
<trkpt lat="46.02724557" lon="7.48084816"><ele></ele><time>2016-9-12T22:18:53Z</time></trkpt>
<trkpt lat="46.02754472" lon="7.48079033"><ele></ele><time>2016-9-12T22:18:56Z</time></trkpt>
<trkpt lat="46.02762988" lon="7.48075822"><ele></ele><time>2016-9-12T22:18:59Z</time></trkpt>
<trkpt lat="46.02725454" lon="7.48057659"><ele></ele><time>2016-9-12T22:19:2Z</time></trkpt>
<trkpt lat="46.02703091" lon="7.48040543"><ele></ele><time>2016-9-12T22:19:5Z</time></trkpt>
<trkpt lat="46.02680124" lon="7.48011927"><ele></ele><time>2016-9-12T22:19:8Z</time></trkpt>
<trkpt lat="46.02658189" lon="7.47987536"><ele></ele><time>2016-9-12T22:19:11Z</time></trkpt>
<trkpt lat="46.02633881" lon="7.47965089"><ele></ele><time>2016-9-12T22:19:14Z</time></trkpt>
<trkpt lat="46.02610320" lon="7.47940706"><ele></ele><time>2016-9-12T22:19:17Z</time></trkpt>
<trkpt lat="46.02576013" lon="7.47923926"><ele></ele><time>2016-9-12T22:19:20Z</time></trkpt>
<trkpt lat="46.02539543" lon="7.47926214"><ele></ele><time>2016-9-12T22:19:23Z</time></trkpt>
<trkpt lat="46.02561914" lon="7.47903700"><ele></ele><time>2016-9-12T22:19:26Z</time></trkpt>
<trkpt lat="46.02573666" lon="7.47889224"><ele></ele><time>2016-9-12T22:19:29Z</time></trkpt>
<trkpt lat="46.02598778" lon="7.47889644"><ele></ele><time>2016-9-12T22:19:32Z</time></trkpt>
<trkpt lat="46.02622842" lon="7.47884933"><ele></ele><time>2016-9-12T22:19:35Z</time></trkpt>
<trkpt lat="46.02639631" lon="7.47872377"><ele></ele><time>2016-9-12T22:19:38Z</time></trkpt>
<trkpt lat="46.02657468" lon="7.47871924"><ele></ele><time>2016-9-12T22:19:41Z</time></trkpt>
<trkpt lat="46.02676554" lon="7.47871061"><ele></ele><time>2016-9-12T22:19:44Z</time></trkpt>
<trkpt lat="46.02693485" lon="7.47869527"><ele></ele><time>2016-9-12T22:19:47Z</time></trkpt>
<trkpt lat="46.02700786" lon="7.47865420"><ele></ele><time>2016-9-12T22:19:50Z</time></trkpt>
<trkpt lat="46.02700786" lon="7.47865420"><ele></ele><time>2016-9-12T22:19:53Z</time></trkpt>
<trkpt lat="46.02703711" lon="7.47869116"><ele></ele><time>2016-9-12T22:19:56Z</time></trkpt>
</trkseg></trk></gpx>